Terminal Aerodrome Forecast
Issued by NWS

Home | Current Version | Previous Version | Text Only | Print | Product List | Glossary On
Versions: 1 2 3 4 5 6 7 8 9 10 11 12 13 14 15 16 17 18 19
746
FTUS43 KGRB 221012 AAA
TAFCWA
TAF AMD
KCWA 221012Z 2210/2306 30007KT P6SM BKN026
      TEMPO 2211/2213 SCT026
     FM221300 29005KT P6SM SKC
     FM221600 24008KT P6SM BKN200
     FM222200 20006KT P6SM BKN080
     FM230300 20007KT 6SM -SN BKN035 OVC060 PROB30 2303/2306 5SM
      -FZRASN BKN025
      AMD LTD TO CLD VIS AND WIND TIL 221200=

USA.gov is the U.S. government's official web portal to all federal, state and local government web resources and services.